Accueil
METAR-TAF:

METAR-TAF

Aéroports :

Lyon, France

Aéroport de Lyon-Bron

latitude: 45-43N, longitude: 004-57E, altitude: 200 m

Observation

Le bulletin a été fait il y a 32 minutes, à 00:00 UTC
Vent 6 kt de nord, variant entre nord/nord-ouest et nord-est
Température 0°C
Humidité 69%
Pression 1010 hPa
Visibilité: 9000 m
Ciel couvert à une hauteur de 3700 ft

METAR: LFLY 240000Z AUTO 35006KT 330V040 9000 OVC037 00/M05 Q1010

Heure: 01:32 (00:32 UTC)

Prévision

Le bulletin a été fait il y a 19 heures et 32 minutes, à 05:00 UTC
Prévision valable du 23 à 06 UTC au 24 à 06 UTC
Vent 6 kt de nord/nord-ouest
Visibilité: 8000 m
Nuages fragmentés à une hauteur de 4500 ft
Evoluant progressivement
du 23 à 12 UTC au 23 à 15 UTC

TAF: LFLY 230500Z 2306/2406 33006KT 8000 BKN045 BECMG 2312/2315 NSC

Observations et prévisions météorologiques de plus de 4000 aéroports (messages METAR et TAF).

Les stations disponibles sont représentées par des disques jaunes et rouges sur la carte.

Passer la souris dessus pour voir le nom de la station.

Cliquer dessus pour voir les observations et prévisions météorologiques.

Pour changer de carte: cliquez sur les boutons verts avec une croix noire pour zoomer, sur le bouton vert avec un tiret pour effectuer un zoom arrière, ou sur les flèches vertes pour les cartes adjacentes.


METAR-TAF: